Terminal Aerodrome Forecast
Issued by NWS Newport/Morehead City, NC

Home | Current Version | Previous Version | Graphics & Text | Print | Product List | Glossary On
Versions: 1 2 3 4 5 6 7 8 9 10 11 12 13 14 15 16 17 18 19
000
FTUS42 KMHX 042358
TAFEWN
TAF
KEWN 042358Z 0500/0524 19009KT P6SM SCT050
     FM050400 19007KT 4SM BR BKN010
     FM050700 20006KT 2SM BR BKN007
     FM051300 28008KT 5SM -RA BKN015
     FM051600 02012G18KT 5SM -RA OVC007=

USA.gov is the U.S. government's official web portal to all federal, state and local government web resources and services.